sensor_id;sensor_type;location;lat;lon;timestamp;temperature;humidity
12477;DHT22;6303;51.504;6.300;2023-04-24T00:00:23;22.80;54.50
12477;DHT22;6303;51.504;6.300;2023-04-24T00:02:50;22.80;54.50
12477;DHT22;6303;51.504;6.300;2023-04-24T00:05:18;22.80;54.50
12477;DHT22;6303;51.504;6.300;2023-04-24T00:07:45;22.80;54.40
12477;DHT22;6303;51.504;6.300;2023-04-24T00:10:12;22.80;54.40
12477;DHT22;6303;51.504;6.300;2023-04-24T00:12:39;22.80;54.30
12477;DHT22;6303;51.504;6.300;2023-04-24T00:15:07;22.80;54.30
12477;DHT22;6303;51.504;6.300;2023-04-24T00:17:36;22.80;56.20
12477;DHT22;6303;51.504;6.300;2023-04-24T00:20:04;22.80;56.60
12477;DHT22;6303;51.504;6.300;2023-04-24T00:22:32;22.80;56.90
12477;DHT22;6303;51.504;6.300;2023-04-24T00:24:59;23.00;57.10
12477;DHT22;6303;51.504;6.300;2023-04-24T00:27:26;22.80;57.00
12477;DHT22;6303;51.504;6.300;2023-04-24T00:29:53;22.80;56.80
12477;DHT22;6303;51.504;6.300;2023-04-24T00:32:20;22.80;56.80
12477;DHT22;6303;51.504;6.300;2023-04-24T00:34:49;22.80;57.30
12477;DHT22;6303;51.504;6.300;2023-04-24T00:37:16;22.80;54.10
12477;DHT22;6303;51.504;6.300;2023-04-24T00:39:44;22.80;54.00
12477;DHT22;6303;51.504;6.300;2023-04-24T00:42:11;22.80;54.00
12477;DHT22;6303;51.504;6.300;2023-04-24T00:44:38;22.80;54.00
12477;DHT22;6303;51.504;6.300;2023-04-24T00:47:06;22.80;54.10
12477;DHT22;6303;51.504;6.300;2023-04-24T00:49:33;22.00;53.70
12477;DHT22;6303;51.504;6.300;2023-04-24T00:52:02;22.80;54.20
12477;DHT22;6303;51.504;6.300;2023-04-24T00:54:33;22.80;54.20
12477;DHT22;6303;51.504;6.300;2023-04-24T00:57:00;22.80;54.20
12477;DHT22;6303;51.504;6.300;2023-04-24T00:59:28;22.80;54.20
12477;DHT22;6303;51.504;6.300;2023-04-24T01:01:55;22.70;54.10
12477;DHT22;6303;51.504;6.300;2023-04-24T01:04:22;22.70;54.10
12477;DHT22;6303;51.504;6.300;2023-04-24T01:06:50;22.80;54.20
12477;DHT22;6303;51.504;6.300;2023-04-24T01:09:19;22.70;54.10
12477;DHT22;6303;51.504;6.300;2023-04-24T01:11:47;22.70;54.10
12477;DHT22;6303;51.504;6.300;2023-04-24T01:14:14;22.80;54.20
12477;DHT22;6303;51.504;6.300;2023-04-24T01:16:42;22.70;54.00
12477;DHT22;6303;51.504;6.300;2023-04-24T01:19:10;22.70;54.10
12477;DHT22;6303;51.504;6.300;2023-04-24T01:21:38;22.70;54.00
12477;DHT22;6303;51.504;6.300;2023-04-24T01:24:07;22.70;54.10
12477;DHT22;6303;51.504;6.300;2023-04-24T01:26:34;22.70;54.20
12477;DHT22;6303;51.504;6.300;2023-04-24T01:29:01;22.70;54.30
12477;DHT22;6303;51.504;6.300;2023-04-24T01:31:28;22.70;54.50
12477;DHT22;6303;51.504;6.300;2023-04-24T01:36:42;24.40;54.70
12477;DHT22;6303;51.504;6.300;2023-04-24T01:39:11;22.60;53.80
12477;DHT22;6303;51.504;6.300;2023-04-24T01:41:38;22.70;53.90
12477;DHT22;6303;51.504;6.300;2023-04-24T01:44:05;22.70;53.90
12477;DHT22;6303;51.504;6.300;2023-04-24T01:46:33;22.70;53.80
12477;DHT22;6303;51.504;6.300;2023-04-24T01:49:03;22.70;53.90
12477;DHT22;6303;51.504;6.300;2023-04-24T01:51:30;22.60;53.80
12477;DHT22;6303;51.504;6.300;2023-04-24T01:53:57;22.70;53.90
12477;DHT22;6303;51.504;6.300;2023-04-24T01:56:28;22.70;53.90
12477;DHT22;6303;51.504;6.300;2023-04-24T01:58:56;22.70;53.90
12477;DHT22;6303;51.504;6.300;2023-04-24T02:01:24;22.70;53.90
12477;DHT22;6303;51.504;6.300;2023-04-24T02:03:51;22.70;53.90
12477;DHT22;6303;51.504;6.300;2023-04-24T02:06:18;22.70;53.90
12477;DHT22;6303;51.504;6.300;2023-04-24T02:08:45;22.70;53.80
12477;DHT22;6303;51.504;6.300;2023-04-24T02:11:12;22.70;53.70
12477;DHT22;6303;51.504;6.300;2023-04-24T02:13:41;22.70;53.70
12477;DHT22;6303;51.504;6.300;2023-04-24T02:16:08;22.70;53.60
12477;DHT22;6303;51.504;6.300;2023-04-24T02:18:35;22.70;53.60
12477;DHT22;6303;51.504;6.300;2023-04-24T02:21:02;22.70;53.60
12477;DHT22;6303;51.504;6.300;2023-04-24T02:23:29;22.70;53.60
12477;DHT22;6303;51.504;6.300;2023-04-24T02:25:56;22.70;53.60
12477;DHT22;6303;51.504;6.300;2023-04-24T02:28:24;22.60;53.60
12477;DHT22;6303;51.504;6.300;2023-04-24T02:30:52;22.70;53.70
12477;DHT22;6303;51.504;6.300;2023-04-24T02:33:21;22.70;53.70
12477;DHT22;6303;51.504;6.300;2023-04-24T02:35:49;22.70;53.70
12477;DHT22;6303;51.504;6.300;2023-04-24T02:38:16;22.60;53.60
12477;DHT22;6303;51.504;6.300;2023-04-24T02:40:43;22.70;53.60
12477;DHT22;6303;51.504;6.300;2023-04-24T02:43:10;22.60;53.60
12477;DHT22;6303;51.504;6.300;2023-04-24T02:45:37;22.60;54.20
12477;DHT22;6303;51.504;6.300;2023-04-24T02:48:05;22.60;53.60
12477;DHT22;6303;51.504;6.300;2023-04-24T02:50:32;22.60;53.60
12477;DHT22;6303;51.504;6.300;2023-04-24T02:52:59;22.60;53.60
12477;DHT22;6303;51.504;6.300;2023-04-24T02:55:27;22.60;53.50
12477;DHT22;6303;51.504;6.300;2023-04-24T02:57:54;22.60;53.50
12477;DHT22;6303;51.504;6.300;2023-04-24T03:00:21;22.60;53.50
12477;DHT22;6303;51.504;6.300;2023-04-24T03:02:48;22.60;53.50
12477;DHT22;6303;51.504;6.300;2023-04-24T03:05:16;22.60;53.50
12477;DHT22;6303;51.504;6.300;2023-04-24T03:07:43;22.60;53.50
12477;DHT22;6303;51.504;6.300;2023-04-24T03:10:11;22.60;53.50
12477;DHT22;6303;51.504;6.300;2023-04-24T03:12:38;22.60;53.50
12477;DHT22;6303;51.504;6.300;2023-04-24T03:15:06;22.60;53.40
12477;DHT22;6303;51.504;6.300;2023-04-24T03:17:36;22.60;53.40
12477;DHT22;6303;51.504;6.300;2023-04-24T03:20:04;22.60;53.40
12477;DHT22;6303;51.504;6.300;2023-04-24T03:22:33;22.60;53.40
12477;DHT22;6303;51.504;6.300;2023-04-24T03:25:03;22.60;53.30
12477;DHT22;6303;51.504;6.300;2023-04-24T03:27:30;22.60;53.40
12477;DHT22;6303;51.504;6.300;2023-04-24T03:30:05;22.60;53.40
12477;DHT22;6303;51.504;6.300;2023-04-24T03:32:54;22.60;53.40
12477;DHT22;6303;51.504;6.300;2023-04-24T03:35:25;22.60;53.40
12477;DHT22;6303;51.504;6.300;2023-04-24T03:37:55;22.60;53.30
12477;DHT22;6303;51.504;6.300;2023-04-24T03:40:44;22.60;53.30
12477;DHT22;6303;51.504;6.300;2023-04-24T03:43:30;22.60;53.20
12477;DHT22;6303;51.504;6.300;2023-04-24T03:45:59;22.60;53.30
12477;DHT22;6303;51.504;6.300;2023-04-24T03:48:28;22.60;53.30
12477;DHT22;6303;51.504;6.300;2023-04-24T03:50:55;22.60;53.30
12477;DHT22;6303;51.504;6.300;2023-04-24T03:53:23;22.50;53.20
12477;DHT22;6303;51.504;6.300;2023-04-24T03:55:50;22.60;53.30
12477;DHT22;6303;51.504;6.300;2023-04-24T03:58:17;22.60;53.30
12477;DHT22;6303;51.504;6.300;2023-04-24T04:00:45;22.60;53.30
12477;DHT22;6303;51.504;6.300;2023-04-24T04:03:36;22.60;53.30
12477;DHT22;6303;51.504;6.300;2023-04-24T04:06:03;22.60;53.30
12477;DHT22;6303;51.504;6.300;2023-04-24T04:08:32;22.60;53.30
12477;DHT22;6303;51.504;6.300;2023-04-24T04:10:59;22.60;53.20
12477;DHT22;6303;51.504;6.300;2023-04-24T04:13:26;22.60;53.30
12477;DHT22;6303;51.504;6.300;2023-04-24T04:15:53;22.60;53.30
12477;DHT22;6303;51.504;6.300;2023-04-24T04:18:20;22.60;53.30
12477;DHT22;6303;51.504;6.300;2023-04-24T04:20:47;22.50;53.20
12477;DHT22;6303;51.504;6.300;2023-04-24T04:23:15;22.60;53.20
12477;DHT22;6303;51.504;6.300;2023-04-24T04:25:54;22.60;53.20
12477;DHT22;6303;51.504;6.300;2023-04-24T04:28:25;22.60;53.20
12477;DHT22;6303;51.504;6.300;2023-04-24T04:30:53;22.50;53.20
12477;DHT22;6303;51.504;6.300;2023-04-24T04:33:22;22.50;53.20
12477;DHT22;6303;51.504;6.300;2023-04-24T04:35:50;22.50;53.20
12477;DHT22;6303;51.504;6.300;2023-04-24T04:38:18;22.50;53.10
12477;DHT22;6303;51.504;6.300;2023-04-24T04:40:54;22.50;53.10
12477;DHT22;6303;51.504;6.300;2023-04-24T04:43:23;22.50;53.20
12477;DHT22;6303;51.504;6.300;2023-04-24T04:45:52;22.50;53.20
12477;DHT22;6303;51.504;6.300;2023-04-24T04:48:39;22.50;53.30
12477;DHT22;6303;51.504;6.300;2023-04-24T04:51:07;22.50;53.30
12477;DHT22;6303;51.504;6.300;2023-04-24T04:53:34;22.50;53.30
12477;DHT22;6303;51.504;6.300;2023-04-24T04:56:03;22.50;53.30
12477;DHT22;6303;51.504;6.300;2023-04-24T04:58:35;22.50;53.20
12477;DHT22;6303;51.504;6.300;2023-04-24T05:01:04;22.50;53.20
12477;DHT22;6303;51.504;6.300;2023-04-24T05:03:38;21.80;52.80
12477;DHT22;6303;51.504;6.300;2023-04-24T05:06:09;22.50;53.10
12477;DHT22;6303;51.504;6.300;2023-04-24T05:08:38;22.50;52.90
12477;DHT22;6303;51.504;6.300;2023-04-24T05:11:10;22.50;53.10
12477;DHT22;6303;51.504;6.300;2023-04-24T05:13:39;22.50;53.20
12477;DHT22;6303;51.504;6.300;2023-04-24T05:16:12;22.50;53.30
12477;DHT22;6303;51.504;6.300;2023-04-24T05:18:39;22.50;53.10
12477;DHT22;6303;51.504;6.300;2023-04-24T05:21:09;22.50;53.20
12477;DHT22;6303;51.504;6.300;2023-04-24T05:23:38;22.50;53.40
12477;DHT22;6303;51.504;6.300;2023-04-24T05:26:06;22.20;53.40
12477;DHT22;6303;51.504;6.300;2023-04-24T05:28:34;22.50;53.50
12477;DHT22;6303;51.504;6.300;2023-04-24T05:31:07;22.50;53.50
12477;DHT22;6303;51.504;6.300;2023-04-24T05:33:34;22.50;53.60
12477;DHT22;6303;51.504;6.300;2023-04-24T05:36:01;22.50;54.00
12477;DHT22;6303;51.504;6.300;2023-04-24T05:38:28;22.50;54.40
12477;DHT22;6303;51.504;6.300;2023-04-24T05:40:55;22.50;54.30
12477;DHT22;6303;51.504;6.300;2023-04-24T05:43:22;22.40;54.40
12477;DHT22;6303;51.504;6.300;2023-04-24T05:45:51;22.30;54.40
12477;DHT22;6303;51.504;6.300;2023-04-24T05:48:19;22.30;54.50
12477;DHT22;6303;51.504;6.300;2023-04-24T05:50:47;22.40;54.30
12477;DHT22;6303;51.504;6.300;2023-04-24T05:53:14;22.40;54.40
12477;DHT22;6303;51.504;6.300;2023-04-24T05:55:42;22.40;54.40
12477;DHT22;6303;51.504;6.300;2023-04-24T05:58:09;22.50;54.30
12477;DHT22;6303;51.504;6.300;2023-04-24T06:00:38;22.50;54.30
12477;DHT22;6303;51.504;6.300;2023-04-24T06:03:09;22.50;54.20
12477;DHT22;6303;51.504;6.300;2023-04-24T06:05:36;22.50;54.20
12477;DHT22;6303;51.504;6.300;2023-04-24T06:08:04;22.50;54.20
12477;DHT22;6303;51.504;6.300;2023-04-24T06:10:35;22.50;54.10
12477;DHT22;6303;51.504;6.300;2023-04-24T06:13:04;22.50;54.10
12477;DHT22;6303;51.504;6.300;2023-04-24T06:15:33;22.50;54.10
12477;DHT22;6303;51.504;6.300;2023-04-24T06:18:05;22.50;54.10
12477;DHT22;6303;51.504;6.300;2023-04-24T06:20:34;22.50;54.10
12477;DHT22;6303;51.504;6.300;2023-04-24T06:23:02;22.50;54.10
12477;DHT22;6303;51.504;6.300;2023-04-24T06:25:29;22.50;54.00
12477;DHT22;6303;51.504;6.300;2023-04-24T06:27:56;22.50;53.80
12477;DHT22;6303;51.504;6.300;2023-04-24T06:30:23;22.50;53.90
12477;DHT22;6303;51.504;6.300;2023-04-24T06:32:51;22.50;53.80
12477;DHT22;6303;51.504;6.300;2023-04-24T06:35:18;22.50;53.80
12477;DHT22;6303;51.504;6.300;2023-04-24T06:37:46;22.50;53.80
12477;DHT22;6303;51.504;6.300;2023-04-24T06:40:13;22.50;53.80
12477;DHT22;6303;51.504;6.300;2023-04-24T06:42:40;22.50;53.80
12477;DHT22;6303;51.504;6.300;2023-04-24T06:45:08;22.50;53.80
12477;DHT22;6303;51.504;6.300;2023-04-24T06:47:36;22.50;53.80
12477;DHT22;6303;51.504;6.300;2023-04-24T06:50:04;22.50;53.80
12477;DHT22;6303;51.504;6.300;2023-04-24T06:52:31;22.50;53.70
12477;DHT22;6303;51.504;6.300;2023-04-24T06:55:01;22.50;53.70
12477;DHT22;6303;51.504;6.300;2023-04-24T06:57:29;22.50;53.80
12477;DHT22;6303;51.504;6.300;2023-04-24T06:59:56;22.50;53.80
12477;DHT22;6303;51.504;6.300;2023-04-24T07:02:23;22.50;53.80
12477;DHT22;6303;51.504;6.300;2023-04-24T07:04:50;22.50;53.70
12477;DHT22;6303;51.504;6.300;2023-04-24T07:07:18;22.60;53.70
12477;DHT22;6303;51.504;6.300;2023-04-24T07:09:45;22.50;53.70
12477;DHT22;6303;51.504;6.300;2023-04-24T07:12:13;22.50;53.50
12477;DHT22;6303;51.504;6.300;2023-04-24T07:14:42;22.50;53.60
12477;DHT22;6303;51.504;6.300;2023-04-24T07:17:10;22.60;53.60
12477;DHT22;6303;51.504;6.300;2023-04-24T07:19:38;22.50;53.50
12477;DHT22;6303;51.504;6.300;2023-04-24T07:22:06;22.50;53.60
12477;DHT22;6303;51.504;6.300;2023-04-24T07:24:33;22.50;53.70
12477;DHT22;6303;51.504;6.300;2023-04-24T07:27:00;22.50;53.50
12477;DHT22;6303;51.504;6.300;2023-04-24T07:29:29;22.60;53.70
12477;DHT22;6303;51.504;6.300;2023-04-24T07:31:56;22.60;53.60
12477;DHT22;6303;51.504;6.300;2023-04-24T07:34:23;22.60;53.50
12477;DHT22;6303;51.504;6.300;2023-04-24T07:36:50;22.60;53.60
12477;DHT22;6303;51.504;6.300;2023-04-24T07:39:18;22.60;53.60
12477;DHT22;6303;51.504;6.300;2023-04-24T07:41:45;22.60;53.60
12477;DHT22;6303;51.504;6.300;2023-04-24T07:44:12;22.60;53.50
12477;DHT22;6303;51.504;6.300;2023-04-24T07:46:40;22.60;53.60
12477;DHT22;6303;51.504;6.300;2023-04-24T07:49:07;22.50;53.50
12477;DHT22;6303;51.504;6.300;2023-04-24T07:51:34;22.60;53.50
12477;DHT22;6303;51.504;6.300;2023-04-24T07:54:04;22.60;53.40
12477;DHT22;6303;51.504;6.300;2023-04-24T07:56:32;22.60;53.40
12477;DHT22;6303;51.504;6.300;2023-04-24T07:58:59;22.70;53.50
12477;DHT22;6303;51.504;6.300;2023-04-24T08:01:26;22.70;53.40
12477;DHT22;6303;51.504;6.300;2023-04-24T08:03:55;22.60;53.30
12477;DHT22;6303;51.504;6.300;2023-04-24T08:06:22;22.70;61.00
12477;DHT22;6303;51.504;6.300;2023-04-24T08:08:49;22.70;59.60
12477;DHT22;6303;51.504;6.300;2023-04-24T08:11:17;22.70;58.30
12477;DHT22;6303;51.504;6.300;2023-04-24T08:13:44;22.70;55.50
12477;DHT22;6303;51.504;6.300;2023-04-24T08:16:11;22.70;55.90
12477;DHT22;6303;51.504;6.300;2023-04-24T08:18:38;22.70;56.20
12477;DHT22;6303;51.504;6.300;2023-04-24T08:21:06;22.70;56.00
12477;DHT22;6303;51.504;6.300;2023-04-24T08:23:33;22.70;55.40
12477;DHT22;6303;51.504;6.300;2023-04-24T08:26:00;22.70;54.60
12477;DHT22;6303;51.504;6.300;2023-04-24T08:28:28;22.70;54.80
12477;DHT22;6303;51.504;6.300;2023-04-24T08:30:55;22.70;54.30
12477;DHT22;6303;51.504;6.300;2023-04-24T08:33:23;22.70;53.70
12477;DHT22;6303;51.504;6.300;2023-04-24T08:35:50;22.70;54.60
12477;DHT22;6303;51.504;6.300;2023-04-24T08:38:18;22.70;54.50
12477;DHT22;6303;51.504;6.300;2023-04-24T08:40:45;22.70;55.10
12477;DHT22;6303;51.504;6.300;2023-04-24T08:43:15;22.70;54.20
12477;DHT22;6303;51.504;6.300;2023-04-24T08:45:43;22.70;53.90
12477;DHT22;6303;51.504;6.300;2023-04-24T08:48:10;22.50;53.80
12477;DHT22;6303;51.504;6.300;2023-04-24T08:50:37;22.70;54.50
12477;DHT22;6303;51.504;6.300;2023-04-24T08:53:07;22.70;54.20
12477;DHT22;6303;51.504;6.300;2023-04-24T08:55:37;22.70;53.10
12477;DHT22;6303;51.504;6.300;2023-04-24T08:58:04;22.70;53.30
12477;DHT22;6303;51.504;6.300;2023-04-24T09:00:31;22.70;53.00
12477;DHT22;6303;51.504;6.300;2023-04-24T09:03:01;22.70;53.10
12477;DHT22;6303;51.504;6.300;2023-04-24T09:05:29;22.70;53.20
12477;DHT22;6303;51.504;6.300;2023-04-24T09:07:57;22.70;53.50
12477;DHT22;6303;51.504;6.300;2023-04-24T09:10:25;22.70;53.70
12477;DHT22;6303;51.504;6.300;2023-04-24T09:12:56;22.70;53.70
12477;DHT22;6303;51.504;6.300;2023-04-24T09:15:24;22.70;54.20
12477;DHT22;6303;51.504;6.300;2023-04-24T09:17:52;22.70;54.50
12477;DHT22;6303;51.504;6.300;2023-04-24T09:20:19;22.70;54.30
12477;DHT22;6303;51.504;6.300;2023-04-24T09:22:46;22.70;54.90
12477;DHT22;6303;51.504;6.300;2023-04-24T09:25:14;22.70;55.00
12477;DHT22;6303;51.504;6.300;2023-04-24T09:27:42;22.70;54.50
12477;DHT22;6303;51.504;6.300;2023-04-24T09:30:12;22.70;55.40
12477;DHT22;6303;51.504;6.300;2023-04-24T09:32:39;22.70;54.80
12477;DHT22;6303;51.504;6.300;2023-04-24T09:35:09;22.80;55.30
12477;DHT22;6303;51.504;6.300;2023-04-24T09:37:37;22.80;53.40
12477;DHT22;6303;51.504;6.300;2023-04-24T09:40:08;22.60;53.00
12477;DHT22;6303;51.504;6.300;2023-04-24T09:42:35;22.80;52.90
12477;DHT22;6303;51.504;6.300;2023-04-24T09:45:03;22.80;52.80
12477;DHT22;6303;51.504;6.300;2023-04-24T09:47:37;22.90;52.90
12477;DHT22;6303;51.504;6.300;2023-04-24T09:50:12;22.90;52.90
12477;DHT22;6303;51.504;6.300;2023-04-24T09:52:46;22.90;52.60
12477;DHT22;6303;51.504;6.300;2023-04-24T09:55:17;23.10;52.50
12477;DHT22;6303;51.504;6.300;2023-04-24T09:57:52;23.00;52.20
12477;DHT22;6303;51.504;6.300;2023-04-24T10:00:23;22.90;52.00
12477;DHT22;6303;51.504;6.300;2023-04-24T10:02:56;23.00;51.90
12477;DHT22;6303;51.504;6.300;2023-04-24T10:05:25;23.00;51.80
12477;DHT22;6303;51.504;6.300;2023-04-24T10:07:57;23.00;51.80
12477;DHT22;6303;51.504;6.300;2023-04-24T10:10:24;23.00;51.80
12477;DHT22;6303;51.504;6.300;2023-04-24T10:12:51;23.00;51.80
12477;DHT22;6303;51.504;6.300;2023-04-24T10:15:19;23.00;51.70
12477;DHT22;6303;51.504;6.300;2023-04-24T10:17:48;23.10;51.80
12477;DHT22;6303;51.504;6.300;2023-04-24T10:20:20;23.30;51.70
12477;DHT22;6303;51.504;6.300;2023-04-24T10:22:49;23.00;51.60
12477;DHT22;6303;51.504;6.300;2023-04-24T10:25:21;23.10;51.60
12477;DHT22;6303;51.504;6.300;2023-04-24T10:27:49;23.10;51.50
12477;DHT22;6303;51.504;6.300;2023-04-24T10:30:17;23.20;51.50
12477;DHT22;6303;51.504;6.300;2023-04-24T10:32:44;23.20;51.60
12477;DHT22;6303;51.504;6.300;2023-04-24T10:35:13;23.20;51.50
12477;DHT22;6303;51.504;6.300;2023-04-24T10:37:44;23.30;51.30
12477;DHT22;6303;51.504;6.300;2023-04-24T10:40:17;23.40;51.20
12477;DHT22;6303;51.504;6.300;2023-04-24T10:42:47;23.40;51.10
12477;DHT22;6303;51.504;6.300;2023-04-24T10:45:18;23.40;50.80
12477;DHT22;6303;51.504;6.300;2023-04-24T10:48:08;23.40;51.50
12477;DHT22;6303;51.504;6.300;2023-04-24T10:50:43;23.40;50.80
12477;DHT22;6303;51.504;6.300;2023-04-24T10:53:15;23.40;51.00
12477;DHT22;6303;51.504;6.300;2023-04-24T10:55:47;23.40;51.10
12477;DHT22;6303;51.504;6.300;2023-04-24T10:58:14;23.40;51.10
12477;DHT22;6303;51.504;6.300;2023-04-24T11:00:43;23.30;51.10
12477;DHT22;6303;51.504;6.300;2023-04-24T11:03:26;23.30;51.10
12477;DHT22;6303;51.504;6.300;2023-04-24T11:05:58;23.30;51.10
12477;DHT22;6303;51.504;6.300;2023-04-24T11:08:29;23.50;51.10
12477;DHT22;6303;51.504;6.300;2023-04-24T11:11:01;23.40;51.00
12477;DHT22;6303;51.504;6.300;2023-04-24T11:16:31;23.30;50.90
12477;DHT22;6303;51.504;6.300;2023-04-24T11:19:04;23.30;50.90
12477;DHT22;6303;51.504;6.300;2023-04-24T11:21:32;23.40;51.00
12477;DHT22;6303;51.504;6.300;2023-04-24T11:24:31;23.40;50.90
12477;DHT22;6303;51.504;6.300;2023-04-24T11:27:05;23.40;50.60
12477;DHT22;6303;51.504;6.300;2023-04-24T11:29:39;23.40;50.60
12477;DHT22;6303;51.504;6.300;2023-04-24T11:32:33;23.40;50.50
12477;DHT22;6303;51.504;6.300;2023-04-24T11:35:02;23.40;50.50
12477;DHT22;6303;51.504;6.300;2023-04-24T11:37:34;23.40;50.50
12477;DHT22;6303;51.504;6.300;2023-04-24T11:40:04;23.40;50.40
12477;DHT22;6303;51.504;6.300;2023-04-24T11:42:35;23.40;50.40
12477;DHT22;6303;51.504;6.300;2023-04-24T11:45:07;23.40;50.40
12477;DHT22;6303;51.504;6.300;2023-04-24T11:47:35;23.40;50.30
12477;DHT22;6303;51.504;6.300;2023-04-24T11:50:03;23.20;50.20
12477;DHT22;6303;51.504;6.300;2023-04-24T11:52:30;23.40;50.30
12477;DHT22;6303;51.504;6.300;2023-04-24T11:54:59;23.40;50.30
12477;DHT22;6303;51.504;6.300;2023-04-24T11:57:27;23.40;50.20
12477;DHT22;6303;51.504;6.300;2023-04-24T11:59:59;23.40;50.20
12477;DHT22;6303;51.504;6.300;2023-04-24T12:02:26;23.40;50.20
12477;DHT22;6303;51.504;6.300;2023-04-24T12:04:54;23.40;50.20
12477;DHT22;6303;51.504;6.300;2023-04-24T12:07:22;23.40;50.20
12477;DHT22;6303;51.504;6.300;2023-04-24T12:09:55;23.40;50.10
12477;DHT22;6303;51.504;6.300;2023-04-24T12:12:26;23.40;50.00
12477;DHT22;6303;51.504;6.300;2023-04-24T12:14:55;23.40;50.00
12477;DHT22;6303;51.504;6.300;2023-04-24T12:17:27;23.40;50.00
12477;DHT22;6303;51.504;6.300;2023-04-24T12:19:57;23.40;49.90
12477;DHT22;6303;51.504;6.300;2023-04-24T12:22:26;23.40;49.90
12477;DHT22;6303;51.504;6.300;2023-04-24T12:25:00;23.40;49.80
12477;DHT22;6303;51.504;6.300;2023-04-24T12:27:30;23.40;49.70
12477;DHT22;6303;51.504;6.300;2023-04-24T12:29:59;23.40;49.70
12477;DHT22;6303;51.504;6.300;2023-04-24T12:32:27;23.40;49.60
12477;DHT22;6303;51.504;6.300;2023-04-24T12:34:54;23.50;49.60
12477;DHT22;6303;51.504;6.300;2023-04-24T12:37:23;22.80;49.30
12477;DHT22;6303;51.504;6.300;2023-04-24T12:40:01;23.50;49.60
12477;DHT22;6303;51.504;6.300;2023-04-24T12:42:29;23.50;49.50
12477;DHT22;6303;51.504;6.300;2023-04-24T12:44:58;23.50;49.50
12477;DHT22;6303;51.504;6.300;2023-04-24T12:47:27;23.40;49.40
12477;DHT22;6303;51.504;6.300;2023-04-24T12:49:54;23.40;49.40
12477;DHT22;6303;51.504;6.300;2023-04-24T12:52:21;23.50;50.00
12477;DHT22;6303;51.504;6.300;2023-04-24T12:54:49;23.50;49.40
12477;DHT22;6303;51.504;6.300;2023-04-24T12:57:17;23.50;49.30
12477;DHT22;6303;51.504;6.300;2023-04-24T12:59:44;23.50;49.30
12477;DHT22;6303;51.504;6.300;2023-04-24T13:02:13;23.40;49.20
12477;DHT22;6303;51.504;6.300;2023-04-24T13:04:44;23.50;49.30
12477;DHT22;6303;51.504;6.300;2023-04-24T13:07:11;23.40;49.20
12477;DHT22;6303;51.504;6.300;2023-04-24T13:09:40;23.40;49.10
12477;DHT22;6303;51.504;6.300;2023-04-24T13:12:07;23.40;49.20
12477;DHT22;6303;51.504;6.300;2023-04-24T13:14:34;23.40;49.10
12477;DHT22;6303;51.504;6.300;2023-04-24T13:17:02;23.40;49.10
12477;DHT22;6303;51.504;6.300;2023-04-24T13:19:36;23.40;49.10
12477;DHT22;6303;51.504;6.300;2023-04-24T13:22:03;23.40;49.10
12477;DHT22;6303;51.504;6.300;2023-04-24T13:24:31;23.40;49.10
12477;DHT22;6303;51.504;6.300;2023-04-24T13:26:58;23.40;49.10
12477;DHT22;6303;51.504;6.300;2023-04-24T13:29:26;24.40;49.60
12477;DHT22;6303;51.504;6.300;2023-04-24T13:31:53;23.50;49.00
12477;DHT22;6303;51.504;6.300;2023-04-24T13:34:21;23.50;49.00
12477;DHT22;6303;51.504;6.300;2023-04-24T13:36:49;23.50;48.90
12477;DHT22;6303;51.504;6.300;2023-04-24T13:39:17;23.50;48.90
12477;DHT22;6303;51.504;6.300;2023-04-24T13:41:44;23.50;48.90
12477;DHT22;6303;51.504;6.300;2023-04-24T13:44:12;23.50;48.90
12477;DHT22;6303;51.504;6.300;2023-04-24T13:46:39;23.50;49.60
12477;DHT22;6303;51.504;6.300;2023-04-24T13:49:06;23.00;48.60
12477;DHT22;6303;51.504;6.300;2023-04-24T13:51:33;23.50;48.90
12477;DHT22;6303;51.504;6.300;2023-04-24T13:54:02;23.40;48.90
12477;DHT22;6303;51.504;6.300;2023-04-24T13:56:29;23.40;48.90
12477;DHT22;6303;51.504;6.300;2023-04-24T13:58:56;23.40;48.90
12477;DHT22;6303;51.504;6.300;2023-04-24T14:01:23;23.40;48.90
12477;DHT22;6303;51.504;6.300;2023-04-24T14:03:50;23.40;48.90
12477;DHT22;6303;51.504;6.300;2023-04-24T14:06:18;23.40;48.90
12477;DHT22;6303;51.504;6.300;2023-04-24T14:08:45;23.40;49.00
12477;DHT22;6303;51.504;6.300;2023-04-24T14:11:14;23.40;49.00
12477;DHT22;6303;51.504;6.300;2023-04-24T14:13:41;23.40;49.60
12477;DHT22;6303;51.504;6.300;2023-04-24T14:16:09;23.40;49.00
12477;DHT22;6303;51.504;6.300;2023-04-24T14:18:37;23.40;52.90
12477;DHT22;6303;51.504;6.300;2023-04-24T14:21:04;23.40;52.50
12477;DHT22;6303;51.504;6.300;2023-04-24T14:23:31;23.40;52.50
12477;DHT22;6303;51.504;6.300;2023-04-24T14:25:58;23.40;52.50
12477;DHT22;6303;51.504;6.300;2023-04-24T14:28:27;23.40;52.10
12477;DHT22;6303;51.504;6.300;2023-04-24T14:30:54;23.40;52.00
12477;DHT22;6303;51.504;6.300;2023-04-24T14:33:21;23.40;51.80
12477;DHT22;6303;51.504;6.300;2023-04-24T14:35:48;23.40;51.50
12477;DHT22;6303;51.504;6.300;2023-04-24T14:38:15;23.40;51.60
12477;DHT22;6303;51.504;6.300;2023-04-24T14:40:42;23.40;51.80
12477;DHT22;6303;51.504;6.300;2023-04-24T14:43:10;23.80;51.80
12477;DHT22;6303;51.504;6.300;2023-04-24T14:45:38;23.40;51.10
12477;DHT22;6303;51.504;6.300;2023-04-24T14:48:06;23.40;50.40
12477;DHT22;6303;51.504;6.300;2023-04-24T14:50:33;23.40;50.50
12477;DHT22;6303;51.504;6.300;2023-04-24T14:53:00;23.40;50.40
12477;DHT22;6303;51.504;6.300;2023-04-24T14:55:28;23.40;50.50
12477;DHT22;6303;51.504;6.300;2023-04-24T14:57:55;23.40;50.50
12477;DHT22;6303;51.504;6.300;2023-04-24T15:00:22;23.40;50.30
12477;DHT22;6303;51.504;6.300;2023-04-24T15:02:51;23.40;50.30
12477;DHT22;6303;51.504;6.300;2023-04-24T15:05:18;23.40;50.20
12477;DHT22;6303;51.504;6.300;2023-04-24T15:07:45;23.40;50.00
12477;DHT22;6303;51.504;6.300;2023-04-24T15:10:12;23.40;49.90
12477;DHT22;6303;51.504;6.300;2023-04-24T15:12:39;23.40;49.70
12477;DHT22;6303;51.504;6.300;2023-04-24T15:15:07;23.40;49.60
12477;DHT22;6303;51.504;6.300;2023-04-24T15:17:35;23.40;49.50
12477;DHT22;6303;51.504;6.300;2023-04-24T15:20:04;23.40;49.60
12477;DHT22;6303;51.504;6.300;2023-04-24T15:22:32;23.40;49.40
12477;DHT22;6303;51.504;6.300;2023-04-24T15:24:59;23.40;49.20
12477;DHT22;6303;51.504;6.300;2023-04-24T15:27:26;23.40;49.30
12477;DHT22;6303;51.504;6.300;2023-04-24T15:29:53;23.40;49.30
12477;DHT22;6303;51.504;6.300;2023-04-24T15:32:20;23.40;49.20
12477;DHT22;6303;51.504;6.300;2023-04-24T15:34:47;23.40;49.20
12477;DHT22;6303;51.504;6.300;2023-04-24T15:37:16;23.40;49.10
12477;DHT22;6303;51.504;6.300;2023-04-24T15:39:44;23.40;49.10
12477;DHT22;6303;51.504;6.300;2023-04-24T15:42:11;23.40;49.20
12477;DHT22;6303;51.504;6.300;2023-04-24T15:44:38;23.40;49.10
12477;DHT22;6303;51.504;6.300;2023-04-24T15:47:05;23.40;49.10
12477;DHT22;6303;51.504;6.300;2023-04-24T15:49:32;23.40;49.10
12477;DHT22;6303;51.504;6.300;2023-04-24T15:51:59;23.40;49.10
12477;DHT22;6303;51.504;6.300;2023-04-24T15:54:28;23.40;49.10
12477;DHT22;6303;51.504;6.300;2023-04-24T15:56:55;23.40;49.10
12477;DHT22;6303;51.504;6.300;2023-04-24T15:59:23;23.40;49.10